sensor_id;sensor_type;location;lat;lon;timestamp;temperature;humidity
21121;DHT22;12519;43.318;21.898;2023-07-20T00:02:51;23.6;96.0
21121;DHT22;12519;43.318;21.898;2023-07-20T00:07:27;23.9;95.0
21121;DHT22;12519;43.318;21.898;2023-07-20T00:12:06;23.9;95.0
21121;DHT22;12519;43.318;21.898;2023-07-20T00:16:43;24.0;95.0
21121;DHT22;12519;43.318;21.898;2023-07-20T00:21:19;24.0;95.0
21121;DHT22;12519;43.318;21.898;2023-07-20T00:25:55;24.2;95.0
21121;DHT22;12519;43.318;21.898;2023-07-20T00:30:31;24.2;95.0
21121;DHT22;12519;43.318;21.898;2023-07-20T00:35:08;24.2;95.0
21121;DHT22;12519;43.318;21.898;2023-07-20T00:39:45;24.2;95.0
21121;DHT22;12519;43.318;21.898;2023-07-20T00:44:21;24.2;95.0
21121;DHT22;12519;43.318;21.898;2023-07-20T00:48:57;24.2;95.0
21121;DHT22;12519;43.318;21.898;2023-07-20T00:53:35;24.1;96.0
21121;DHT22;12519;43.318;21.898;2023-07-20T00:58:12;24.1;96.0
21121;DHT22;12519;43.318;21.898;2023-07-20T01:02:51;24.1;96.0
21121;DHT22;12519;43.318;21.898;2023-07-20T01:07:43;24.0;96.0
21121;DHT22;12519;43.318;21.898;2023-07-20T01:12:47;24.0;96.0
21121;DHT22;12519;43.318;21.898;2023-07-20T01:17:28;24.0;96.0
21121;DHT22;12519;43.318;21.898;2023-07-20T01:23:01;24.0;96.0
21121;DHT22;12519;43.318;21.898;2023-07-20T01:29:27;24.0;96.0
21121;DHT22;12519;43.318;21.898;2023-07-20T01:34:27;23.9;96.0
21121;DHT22;12519;43.318;21.898;2023-07-20T01:39:08;23.9;96.0
21121;DHT22;12519;43.318;21.898;2023-07-20T01:43:46;23.8;96.0
21121;DHT22;12519;43.318;21.898;2023-07-20T01:48:23;23.8;96.0
21121;DHT22;12519;43.318;21.898;2023-07-20T01:52:59;23.8;96.0
21121;DHT22;12519;43.318;21.898;2023-07-20T01:57:37;23.8;96.0
21121;DHT22;12519;43.318;21.898;2023-07-20T02:02:14;23.8;96.0
21121;DHT22;12519;43.318;21.898;2023-07-20T02:06:50;23.7;96.0
21121;DHT22;12519;43.318;21.898;2023-07-20T02:11:27;23.7;96.0
21121;DHT22;12519;43.318;21.898;2023-07-20T02:16:04;23.6;96.0
21121;DHT22;12519;43.318;21.898;2023-07-20T02:20:41;23.6;96.0
21121;DHT22;12519;43.318;21.898;2023-07-20T02:25:17;23.5;96.0
21121;DHT22;12519;43.318;21.898;2023-07-20T02:29:54;23.5;96.0
21121;DHT22;12519;43.318;21.898;2023-07-20T02:34:30;23.4;96.0
21121;DHT22;12519;43.318;21.898;2023-07-20T02:39:05;23.4;96.0
21121;DHT22;12519;43.318;21.898;2023-07-20T02:43:41;23.3;96.0
21121;DHT22;12519;43.318;21.898;2023-07-20T02:48:17;23.3;96.0
21121;DHT22;12519;43.318;21.898;2023-07-20T02:52:53;23.3;96.0
21121;DHT22;12519;43.318;21.898;2023-07-20T02:57:29;23.2;96.0
21121;DHT22;12519;43.318;21.898;2023-07-20T03:02:05;23.2;96.0
21121;DHT22;12519;43.318;21.898;2023-07-20T03:06:41;23.1;96.0
21121;DHT22;12519;43.318;21.898;2023-07-20T03:11:19;23.1;96.0
21121;DHT22;12519;43.318;21.898;2023-07-20T03:15:57;23.2;96.0
21121;DHT22;12519;43.318;21.898;2023-07-20T03:20:35;23.2;96.0
21121;DHT22;12519;43.318;21.898;2023-07-20T03:25:12;23.2;96.0
21121;DHT22;12519;43.318;21.898;2023-07-20T03:29:49;23.2;96.0
21121;DHT22;12519;43.318;21.898;2023-07-20T03:34:25;23.2;96.0
21121;DHT22;12519;43.318;21.898;2023-07-20T03:39:02;23.2;96.0
21121;DHT22;12519;43.318;21.898;2023-07-20T03:43:39;23.2;96.0
21121;DHT22;12519;43.318;21.898;2023-07-20T03:48:17;23.2;96.0
21121;DHT22;12519;43.318;21.898;2023-07-20T03:52:58;23.2;96.0
21121;DHT22;12519;43.318;21.898;2023-07-20T03:57:34;23.2;95.0
21121;DHT22;12519;43.318;21.898;2023-07-20T04:02:11;23.2;95.0
21121;DHT22;12519;43.318;21.898;2023-07-20T04:06:48;23.1;95.0
21121;DHT22;12519;43.318;21.898;2023-07-20T04:11:24;23.1;95.0
21121;DHT22;12519;43.318;21.898;2023-07-20T04:16:00;23.2;95.0
21121;DHT22;12519;43.318;21.898;2023-07-20T04:20:37;23.2;95.0
21121;DHT22;12519;43.318;21.898;2023-07-20T04:25:14;23.2;95.0
21121;DHT22;12519;43.318;21.898;2023-07-20T04:29:52;23.2;95.0
21121;DHT22;12519;43.318;21.898;2023-07-20T04:34:29;23.2;94.0
21121;DHT22;12519;43.318;21.898;2023-07-20T04:39:06;23.2;94.0
21121;DHT22;12519;43.318;21.898;2023-07-20T04:43:44;23.2;94.0
21121;DHT22;12519;43.318;21.898;2023-07-20T04:48:20;23.3;94.0
21121;DHT22;12519;43.318;21.898;2023-07-20T04:52:57;23.3;94.0
21121;DHT22;12519;43.318;21.898;2023-07-20T04:57:33;23.2;95.0
21121;DHT22;12519;43.318;21.898;2023-07-20T05:02:09;23.2;95.0
21121;DHT22;12519;43.318;21.898;2023-07-20T05:06:46;23.2;95.0
21121;DHT22;12519;43.318;21.898;2023-07-20T05:11:22;23.2;95.0
21121;DHT22;12519;43.318;21.898;2023-07-20T05:15:58;23.2;95.0
21121;DHT22;12519;43.318;21.898;2023-07-20T05:20:35;23.2;95.0
21121;DHT22;12519;43.318;21.898;2023-07-20T05:25:11;23.2;96.0
21121;DHT22;12519;43.318;21.898;2023-07-20T05:29:48;23.2;96.0
21121;DHT22;12519;43.318;21.898;2023-07-20T05:34:24;23.5;95.0
21121;DHT22;12519;43.318;21.898;2023-07-20T05:39:00;23.5;95.0
21121;DHT22;12519;43.318;21.898;2023-07-20T05:43:36;23.5;95.0
21121;DHT22;12519;43.318;21.898;2023-07-20T05:48:13;23.8;94.0
21121;DHT22;12519;43.318;21.898;2023-07-20T05:52:53;23.8;94.0
21121;DHT22;12519;43.318;21.898;2023-07-20T05:57:31;23.8;94.0
21121;DHT22;12519;43.318;21.898;2023-07-20T06:02:07;23.8;94.0
21121;DHT22;12519;43.318;21.898;2023-07-20T06:06:43;23.9;95.0
21121;DHT22;12519;43.318;21.898;2023-07-20T06:11:20;23.9;95.0
21121;DHT22;12519;43.318;21.898;2023-07-20T06:15:57;23.5;95.0
21121;DHT22;12519;43.318;21.898;2023-07-20T06:20:33;23.5;95.0
21121;DHT22;12519;43.318;21.898;2023-07-20T06:25:10;23.2;96.0
21121;DHT22;12519;43.318;21.898;2023-07-20T06:29:47;23.2;96.0
21121;DHT22;12519;43.318;21.898;2023-07-20T06:34:23;23.7;95.0
21121;DHT22;12519;43.318;21.898;2023-07-20T06:38:59;23.7;95.0
21121;DHT22;12519;43.318;21.898;2023-07-20T06:43:36;23.7;95.0
21121;DHT22;12519;43.318;21.898;2023-07-20T06:48:12;24.2;95.0
21121;DHT22;12519;43.318;21.898;2023-07-20T06:52:48;24.2;95.0
21121;DHT22;12519;43.318;21.898;2023-07-20T06:57:25;24.4;94.0
21121;DHT22;12519;43.318;21.898;2023-07-20T07:02:03;24.4;94.0
21121;DHT22;12519;43.318;21.898;2023-07-20T07:06:41;24.7;93.0
21121;DHT22;12519;43.318;21.898;2023-07-20T07:11:17;24.7;93.0
21121;DHT22;12519;43.318;21.898;2023-07-20T07:15:54;25.0;92.0
21121;DHT22;12519;43.318;21.898;2023-07-20T07:20:31;25.0;92.0
21121;DHT22;12519;43.318;21.898;2023-07-20T07:25:09;25.4;91.0
21121;DHT22;12519;43.318;21.898;2023-07-20T07:29:47;25.4;91.0
21121;DHT22;12519;43.318;21.898;2023-07-20T07:34:23;25.4;90.0
21121;DHT22;12519;43.318;21.898;2023-07-20T07:39:00;25.4;90.0
21121;DHT22;12519;43.318;21.898;2023-07-20T07:43:36;25.4;90.0
21121;DHT22;12519;43.318;21.898;2023-07-20T07:48:13;25.5;90.0
21121;DHT22;12519;43.318;21.898;2023-07-20T07:52:50;25.5;90.0
21121;DHT22;12519;43.318;21.898;2023-07-20T07:57:26;25.6;89.0
21121;DHT22;12519;43.318;21.898;2023-07-20T08:02:05;25.6;89.0
21121;DHT22;12519;43.318;21.898;2023-07-20T08:06:41;25.6;89.0
21121;DHT22;12519;43.318;21.898;2023-07-20T08:11:18;25.6;89.0
21121;DHT22;12519;43.318;21.898;2023-07-20T08:15:54;25.9;88.0
21121;DHT22;12519;43.318;21.898;2023-07-20T08:20:30;25.9;88.0
21121;DHT22;12519;43.318;21.898;2023-07-20T08:25:08;26.2;87.0
21121;DHT22;12519;43.318;21.898;2023-07-20T08:29:46;26.2;87.0
21121;DHT22;12519;43.318;21.898;2023-07-20T08:34:22;26.2;87.0
21121;DHT22;12519;43.318;21.898;2023-07-20T08:38:59;26.2;87.0
21121;DHT22;12519;43.318;21.898;2023-07-20T08:43:42;26.2;87.0
21121;DHT22;12519;43.318;21.898;2023-07-20T08:48:24;26.3;86.0
21121;DHT22;12519;43.318;21.898;2023-07-20T08:53:08;26.3;86.0
21121;DHT22;12519;43.318;21.898;2023-07-20T08:57:53;26.5;85.0
21121;DHT22;12519;43.318;21.898;2023-07-20T09:02:39;26.5;85.0
21121;DHT22;12519;43.318;21.898;2023-07-20T09:07:22;26.7;84.0
21121;DHT22;12519;43.318;21.898;2023-07-20T09:12:00;26.7;84.0
21121;DHT22;12519;43.318;21.898;2023-07-20T09:16:47;26.9;84.0
21121;DHT22;12519;43.318;21.898;2023-07-20T09:21:29;26.9;84.0
21121;DHT22;12519;43.318;21.898;2023-07-20T09:26:11;27.1;83.0
21121;DHT22;12519;43.318;21.898;2023-07-20T09:30:49;27.1;83.0
21121;DHT22;12519;43.318;21.898;2023-07-20T09:35:26;27.6;82.0
21121;DHT22;12519;43.318;21.898;2023-07-20T09:40:07;27.6;82.0
21121;DHT22;12519;43.318;21.898;2023-07-20T09:44:46;28.1;81.0
21121;DHT22;12519;43.318;21.898;2023-07-20T09:49:24;28.1;81.0
21121;DHT22;12519;43.318;21.898;2023-07-20T09:54:01;28.1;81.0
21121;DHT22;12519;43.318;21.898;2023-07-20T09:58:45;28.2;81.0
21121;DHT22;12519;43.318;21.898;2023-07-20T10:03:29;28.2;81.0
21121;DHT22;12519;43.318;21.898;2023-07-20T10:08:16;28.2;80.0
21121;DHT22;12519;43.318;21.898;2023-07-20T10:13:02;28.2;80.0
21121;DHT22;12519;43.318;21.898;2023-07-20T10:18:02;28.4;80.0
21121;DHT22;12519;43.318;21.898;2023-07-20T10:22:57;28.4;80.0
21121;DHT22;12519;43.318;21.898;2023-07-20T10:27:38;28.6;80.0
21121;DHT22;12519;43.318;21.898;2023-07-20T10:32:17;28.6;80.0
21121;DHT22;12519;43.318;21.898;2023-07-20T10:36:56;28.6;80.0
21121;DHT22;12519;43.318;21.898;2023-07-20T10:41:37;28.6;80.0
21121;DHT22;12519;43.318;21.898;2023-07-20T10:46:36;28.6;80.0
21121;DHT22;12519;43.318;21.898;2023-07-20T10:51:21;28.6;80.0
21121;DHT22;12519;43.318;21.898;2023-07-20T10:56:08;28.6;80.0
21121;DHT22;12519;43.318;21.898;2023-07-20T11:00:57;28.6;80.0
21121;DHT22;12519;43.318;21.898;2023-07-20T11:05:39;28.7;80.0
21121;DHT22;12519;43.318;21.898;2023-07-20T11:10:17;28.7;80.0
21121;DHT22;12519;43.318;21.898;2023-07-20T11:14:56;29.0;80.0
21121;DHT22;12519;43.318;21.898;2023-07-20T11:19:34;29.0;80.0
21121;DHT22;12519;43.318;21.898;2023-07-20T11:24:11;29.0;80.0
21121;DHT22;12519;43.318;21.898;2023-07-20T11:28:49;29.3;79.0
21121;DHT22;12519;43.318;21.898;2023-07-20T11:33:27;29.3;79.0
21121;DHT22;12519;43.318;21.898;2023-07-20T11:38:03;29.4;79.0
21121;DHT22;12519;43.318;21.898;2023-07-20T11:42:40;29.4;79.0
21121;DHT22;12519;43.318;21.898;2023-07-20T11:47:17;29.5;79.0
21121;DHT22;12519;43.318;21.898;2023-07-20T11:51:53;29.5;79.0
21121;DHT22;12519;43.318;21.898;2023-07-20T11:56:33;29.4;78.0
21121;DHT22;12519;43.318;21.898;2023-07-20T12:01:09;29.4;78.0
21121;DHT22;12519;43.318;21.898;2023-07-20T12:05:47;29.4;78.0
21121;DHT22;12519;43.318;21.898;2023-07-20T12:10:26;29.4;78.0
21121;DHT22;12519;43.318;21.898;2023-07-20T12:15:23;29.4;78.0
21121;DHT22;12519;43.318;21.898;2023-07-20T12:20:03;29.4;78.0
21121;DHT22;12519;43.318;21.898;2023-07-20T12:24:43;29.4;78.0
21121;DHT22;12519;43.318;21.898;2023-07-20T12:29:20;29.4;77.0
21121;DHT22;12519;43.318;21.898;2023-07-20T12:33:57;29.4;77.0
21121;DHT22;12519;43.318;21.898;2023-07-20T12:38:34;29.4;77.0
21121;DHT22;12519;43.318;21.898;2023-07-20T12:43:11;29.4;77.0
21121;DHT22;12519;43.318;21.898;2023-07-20T12:47:48;29.4;77.0
21121;DHT22;12519;43.318;21.898;2023-07-20T12:52:25;29.4;77.0
21121;DHT22;12519;43.318;21.898;2023-07-20T12:57:01;29.4;77.0
21121;DHT22;12519;43.318;21.898;2023-07-20T13:01:39;29.4;77.0
21121;DHT22;12519;43.318;21.898;2023-07-20T13:06:15;29.5;76.0
21121;DHT22;12519;43.318;21.898;2023-07-20T13:10:51;29.5;76.0
21121;DHT22;12519;43.318;21.898;2023-07-20T13:15:31;29.6;76.0
21121;DHT22;12519;43.318;21.898;2023-07-20T13:20:18;29.6;76.0
21121;DHT22;12519;43.318;21.898;2023-07-20T13:24:54;29.6;76.0
21121;DHT22;12519;43.318;21.898;2023-07-20T13:29:30;29.6;76.0
21121;DHT22;12519;43.318;21.898;2023-07-20T13:34:06;29.6;76.0
21121;DHT22;12519;43.318;21.898;2023-07-20T13:38:43;29.7;75.0
21121;DHT22;12519;43.318;21.898;2023-07-20T13:43:19;29.7;75.0
21121;DHT22;12519;43.318;21.898;2023-07-20T13:47:55;29.8;75.0
21121;DHT22;12519;43.318;21.898;2023-07-20T13:52:32;29.8;75.0
21121;DHT22;12519;43.318;21.898;2023-07-20T13:57:08;29.8;75.0
21121;DHT22;12519;43.318;21.898;2023-07-20T14:01:45;29.8;75.0
21121;DHT22;12519;43.318;21.898;2023-07-20T14:06:21;29.8;75.0
21121;DHT22;12519;43.318;21.898;2023-07-20T14:10:58;29.8;75.0
21121;DHT22;12519;43.318;21.898;2023-07-20T14:15:35;29.8;75.0
21121;DHT22;12519;43.318;21.898;2023-07-20T14:20:12;29.8;75.0
21121;DHT22;12519;43.318;21.898;2023-07-20T14:24:48;29.8;75.0
21121;DHT22;12519;43.318;21.898;2023-07-20T14:29:25;29.7;74.0
21121;DHT22;12519;43.318;21.898;2023-07-20T14:34:01;29.7;74.0
21121;DHT22;12519;43.318;21.898;2023-07-20T14:38:37;29.6;74.0
21121;DHT22;12519;43.318;21.898;2023-07-20T14:43:14;29.6;74.0
21121;DHT22;12519;43.318;21.898;2023-07-20T14:47:50;29.6;73.0
21121;DHT22;12519;43.318;21.898;2023-07-20T14:52:26;29.6;73.0
21121;DHT22;12519;43.318;21.898;2023-07-20T14:57:03;29.6;73.0
21121;DHT22;12519;43.318;21.898;2023-07-20T15:01:41;29.6;73.0
21121;DHT22;12519;43.318;21.898;2023-07-20T15:06:17;29.6;72.0
21121;DHT22;12519;43.318;21.898;2023-07-20T15:10:54;29.6;72.0
21121;DHT22;12519;43.318;21.898;2023-07-20T15:15:31;29.6;73.0
21121;DHT22;12519;43.318;21.898;2023-07-20T15:20:11;29.6;73.0
21121;DHT22;12519;43.318;21.898;2023-07-20T15:24:50;29.6;73.0
21121;DHT22;12519;43.318;21.898;2023-07-20T15:29:27;29.6;74.0
21121;DHT22;12519;43.318;21.898;2023-07-20T15:34:03;29.6;74.0
21121;DHT22;12519;43.318;21.898;2023-07-20T15:38:40;29.6;74.0
21121;DHT22;12519;43.318;21.898;2023-07-20T15:43:17;29.6;74.0
21121;DHT22;12519;43.318;21.898;2023-07-20T15:47:53;29.5;74.0
21121;DHT22;12519;43.318;21.898;2023-07-20T15:52:30;29.5;74.0
21121;DHT22;12519;43.318;21.898;2023-07-20T15:57:07;29.4;75.0
21121;DHT22;12519;43.318;21.898;2023-07-20T16:01:43;29.4;75.0
21121;DHT22;12519;43.318;21.898;2023-07-20T16:06:20;29.3;76.0
21121;DHT22;12519;43.318;21.898;2023-07-20T16:10:56;29.3;76.0
21121;DHT22;12519;43.318;21.898;2023-07-20T16:15:33;29.2;75.0
21121;DHT22;12519;43.318;21.898;2023-07-20T16:20:11;29.2;75.0
21121;DHT22;12519;43.318;21.898;2023-07-20T16:24:47;29.2;75.0
21121;DHT22;12519;43.318;21.898;2023-07-20T16:29:24;29.1;75.0
21121;DHT22;12519;43.318;21.898;2023-07-20T16:34:00;29.1;75.0
21121;DHT22;12519;43.318;21.898;2023-07-20T16:38:37;29.0;76.0
21121;DHT22;12519;43.318;21.898;2023-07-20T16:43:15;29.0;76.0
21121;DHT22;12519;43.318;21.898;2023-07-20T16:47:52;28.9;76.0
21121;DHT22;12519;43.318;21.898;2023-07-20T16:52:29;28.9;76.0
21121;DHT22;12519;43.318;21.898;2023-07-20T16:57:07;28.8;76.0
21121;DHT22;12519;43.318;21.898;2023-07-20T17:01:44;28.8;76.0
21121;DHT22;12519;43.318;21.898;2023-07-20T17:06:20;28.7;77.0
21121;DHT22;12519;43.318;21.898;2023-07-20T17:10:57;28.7;77.0
21121;DHT22;12519;43.318;21.898;2023-07-20T17:15:34;28.6;78.0
21121;DHT22;12519;43.318;21.898;2023-07-20T17:20:10;28.6;78.0
21121;DHT22;12519;43.318;21.898;2023-07-20T17:24:47;28.6;78.0
21121;DHT22;12519;43.318;21.898;2023-07-20T17:29:23;28.5;79.0
21121;DHT22;12519;43.318;21.898;2023-07-20T17:34:00;28.5;79.0
21121;DHT22;12519;43.318;21.898;2023-07-20T17:38:38;28.4;79.0
21121;DHT22;12519;43.318;21.898;2023-07-20T17:43:14;28.4;79.0
21121;DHT22;12519;43.318;21.898;2023-07-20T17:47:51;28.3;80.0
21121;DHT22;12519;43.318;21.898;2023-07-20T17:52:28;28.3;80.0
21121;DHT22;12519;43.318;21.898;2023-07-20T17:57:06;28.2;80.0
21121;DHT22;12519;43.318;21.898;2023-07-20T18:01:43;28.2;80.0
21121;DHT22;12519;43.318;21.898;2023-07-20T18:06:19;28.0;80.0
21121;DHT22;12519;43.318;21.898;2023-07-20T18:11:03;28.0;80.0
21121;DHT22;12519;43.318;21.898;2023-07-20T18:15:40;28.0;80.0
21121;DHT22;12519;43.318;21.898;2023-07-20T18:20:17;28.0;80.0
21121;DHT22;12519;43.318;21.898;2023-07-20T18:24:54;28.0;80.0
21121;DHT22;12519;43.318;21.898;2023-07-20T18:29:30;27.9;81.0
21121;DHT22;12519;43.318;21.898;2023-07-20T18:34:07;27.9;81.0
21121;DHT22;12519;43.318;21.898;2023-07-20T18:38:43;27.8;81.0
21121;DHT22;12519;43.318;21.898;2023-07-20T18:43:19;27.8;81.0
21121;DHT22;12519;43.318;21.898;2023-07-20T18:47:55;27.8;81.0
21121;DHT22;12519;43.318;21.898;2023-07-20T18:52:32;27.8;81.0
21121;DHT22;12519;43.318;21.898;2023-07-20T18:57:08;27.7;82.0
21121;DHT22;12519;43.318;21.898;2023-07-20T19:01:44;27.7;82.0
21121;DHT22;12519;43.318;21.898;2023-07-20T19:06:20;27.6;83.0
21121;DHT22;12519;43.318;21.898;2023-07-20T19:10:59;27.6;83.0
21121;DHT22;12519;43.318;21.898;2023-07-20T19:15:37;27.6;83.0
21121;DHT22;12519;43.318;21.898;2023-07-20T19:20:14;27.6;83.0
21121;DHT22;12519;43.318;21.898;2023-07-20T19:24:51;27.6;83.0
21121;DHT22;12519;43.318;21.898;2023-07-20T19:29:28;27.5;83.0
21121;DHT22;12519;43.318;21.898;2023-07-20T19:34:04;27.5;83.0
21121;DHT22;12519;43.318;21.898;2023-07-20T19:38:40;27.4;83.0
21121;DHT22;12519;43.318;21.898;2023-07-20T19:43:17;27.4;83.0
21121;DHT22;12519;43.318;21.898;2023-07-20T19:47:54;27.4;83.0
21121;DHT22;12519;43.318;21.898;2023-07-20T19:52:30;27.4;83.0
21121;DHT22;12519;43.318;21.898;2023-07-20T19:57:07;27.4;83.0
21121;DHT22;12519;43.318;21.898;2023-07-20T20:01:43;27.4;83.0
21121;DHT22;12519;43.318;21.898;2023-07-20T20:06:20;27.4;83.0
21121;DHT22;12519;43.318;21.898;2023-07-20T20:10:56;27.4;83.0
21121;DHT22;12519;43.318;21.898;2023-07-20T20:15:32;27.4;83.0
21121;DHT22;12519;43.318;21.898;2023-07-20T20:20:10;27.3;83.0
21121;DHT22;12519;43.318;21.898;2023-07-20T20:24:47;27.3;83.0
21121;DHT22;12519;43.318;21.898;2023-07-20T20:29:24;27.2;83.0
21121;DHT22;12519;43.318;21.898;2023-07-20T20:34:01;27.2;83.0
21121;DHT22;12519;43.318;21.898;2023-07-20T20:38:37;27.2;83.0
21121;DHT22;12519;43.318;21.898;2023-07-20T20:43:14;27.2;83.0
21121;DHT22;12519;43.318;21.898;2023-07-20T20:47:51;27.1;82.0
21121;DHT22;12519;43.318;21.898;2023-07-20T20:52:27;27.1;82.0
21121;DHT22;12519;43.318;21.898;2023-07-20T20:57:04;27.0;83.0
21121;DHT22;12519;43.318;21.898;2023-07-20T21:01:41;27.0;83.0
21121;DHT22;12519;43.318;21.898;2023-07-20T21:06:18;27.0;84.0
21121;DHT22;12519;43.318;21.898;2023-07-20T21:10:57;27.0;84.0
21121;DHT22;12519;43.318;21.898;2023-07-20T21:15:34;27.0;84.0
21121;DHT22;12519;43.318;21.898;2023-07-20T21:20:11;26.9;83.0
21121;DHT22;12519;43.318;21.898;2023-07-20T21:24:47;26.9;83.0
21121;DHT22;12519;43.318;21.898;2023-07-20T21:29:23;26.8;83.0
21121;DHT22;12519;43.318;21.898;2023-07-20T21:34:00;26.8;83.0
21121;DHT22;12519;43.318;21.898;2023-07-20T21:38:36;26.8;84.0
21121;DHT22;12519;43.318;21.898;2023-07-20T21:43:12;26.8;84.0
21121;DHT22;12519;43.318;21.898;2023-07-20T21:47:49;26.9;85.0
21121;DHT22;12519;43.318;21.898;2023-07-20T21:52:25;26.9;85.0
21121;DHT22;12519;43.318;21.898;2023-07-20T21:57:02;26.8;86.0
21121;DHT22;12519;43.318;21.898;2023-07-20T22:01:39;26.8;86.0
21121;DHT22;12519;43.318;21.898;2023-07-20T22:06:16;26.6;86.0
21121;DHT22;12519;43.318;21.898;2023-07-20T22:10:53;26.6;86.0
21121;DHT22;12519;43.318;21.898;2023-07-20T22:15:30;26.6;86.0
21121;DHT22;12519;43.318;21.898;2023-07-20T22:20:08;26.6;86.0
21121;DHT22;12519;43.318;21.898;2023-07-20T22:24:47;26.6;86.0
21121;DHT22;12519;43.318;21.898;2023-07-20T22:29:23;26.5;87.0
21121;DHT22;12519;43.318;21.898;2023-07-20T22:34:00;26.5;87.0
21121;DHT22;12519;43.318;21.898;2023-07-20T22:38:36;26.6;87.0
21121;DHT22;12519;43.318;21.898;2023-07-20T22:43:12;26.6;87.0
21121;DHT22;12519;43.318;21.898;2023-07-20T22:47:49;26.6;87.0
21121;DHT22;12519;43.318;21.898;2023-07-20T22:52:25;26.6;87.0
21121;DHT22;12519;43.318;21.898;2023-07-20T22:57:03;26.6;87.0
21121;DHT22;12519;43.318;21.898;2023-07-20T23:01:41;26.6;87.0
21121;DHT22;12519;43.318;21.898;2023-07-20T23:06:18;26.6;87.0
21121;DHT22;12519;43.318;21.898;2023-07-20T23:10:54;26.6;87.0
21121;DHT22;12519;43.318;21.898;2023-07-20T23:15:31;26.6;87.0
21121;DHT22;12519;43.318;21.898;2023-07-20T23:20:11;26.5;88.0
21121;DHT22;12519;43.318;21.898;2023-07-20T23:24:48;26.5;88.0
21121;DHT22;12519;43.318;21.898;2023-07-20T23:29:24;26.4;88.0
21121;DHT22;12519;43.318;21.898;2023-07-20T23:34:01;26.4;88.0
21121;DHT22;12519;43.318;21.898;2023-07-20T23:38:39;26.1;89.0
21121;DHT22;12519;43.318;21.898;2023-07-20T23:43:15;26.1;89.0
21121;DHT22;12519;43.318;21.898;2023-07-20T23:47:52;25.8;90.0
21121;DHT22;12519;43.318;21.898;2023-07-20T23:52:28;25.8;90.0
21121;DHT22;12519;43.318;21.898;2023-07-20T23:57:05;25.6;90.0
